sensor_id;sensor_type;location;lat;lon;timestamp;temperature;humidity
20158;DHT22;10239;56.820;24.416;2024-03-08T00:00:14;1.30;99.90
20158;DHT22;10239;56.820;24.416;2024-03-08T00:02:47;1.40;99.90
20158;DHT22;10239;56.820;24.416;2024-03-08T00:05:18;1.40;99.90
20158;DHT22;10239;56.820;24.416;2024-03-08T00:07:46;1.50;99.90
20158;DHT22;10239;56.820;24.416;2024-03-08T00:10:13;1.50;99.90
20158;DHT22;10239;56.820;24.416;2024-03-08T00:12:44;1.60;99.90
20158;DHT22;10239;56.820;24.416;2024-03-08T00:15:14;1.60;99.90
20158;DHT22;10239;56.820;24.416;2024-03-08T00:17:44;1.60;99.90
20158;DHT22;10239;56.820;24.416;2024-03-08T00:20:12;1.60;99.90
20158;DHT22;10239;56.820;24.416;2024-03-08T00:22:41;1.50;99.90
20158;DHT22;10239;56.820;24.416;2024-03-08T00:25:09;1.40;99.90
20158;DHT22;10239;56.820;24.416;2024-03-08T00:27:37;1.40;99.90
20158;DHT22;10239;56.820;24.416;2024-03-08T00:30:11;1.40;99.90
20158;DHT22;10239;56.820;24.416;2024-03-08T00:32:41;1.30;99.90
20158;DHT22;10239;56.820;24.416;2024-03-08T00:35:08;1.30;99.90
20158;DHT22;10239;56.820;24.416;2024-03-08T00:37:36;1.10;99.90
20158;DHT22;10239;56.820;24.416;2024-03-08T00:40:04;1.20;99.90
20158;DHT22;10239;56.820;24.416;2024-03-08T00:42:35;1.20;99.90
20158;DHT22;10239;56.820;24.416;2024-03-08T00:45:04;1.20;99.90
20158;DHT22;10239;56.820;24.416;2024-03-08T00:47:31;1.20;99.90
20158;DHT22;10239;56.820;24.416;2024-03-08T00:49:59;1.20;99.90
20158;DHT22;10239;56.820;24.416;2024-03-08T00:52:27;1.30;99.90
20158;DHT22;10239;56.820;24.416;2024-03-08T00:54:54;1.30;99.90
20158;DHT22;10239;56.820;24.416;2024-03-08T00:57:22;1.30;99.90
20158;DHT22;10239;56.820;24.416;2024-03-08T00:59:49;1.30;99.90
20158;DHT22;10239;56.820;24.416;2024-03-08T01:02:17;1.30;99.90
20158;DHT22;10239;56.820;24.416;2024-03-08T01:04:46;1.40;99.90
20158;DHT22;10239;56.820;24.416;2024-03-08T01:07:14;1.30;99.90
20158;DHT22;10239;56.820;24.416;2024-03-08T01:09:42;1.30;99.90
20158;DHT22;10239;56.820;24.416;2024-03-08T01:12:10;1.20;99.90
20158;DHT22;10239;56.820;24.416;2024-03-08T01:14:38;1.20;99.90
20158;DHT22;10239;56.820;24.416;2024-03-08T01:17:06;1.20;99.90
20158;DHT22;10239;56.820;24.416;2024-03-08T01:19:34;1.20;99.90
20158;DHT22;10239;56.820;24.416;2024-03-08T01:22:01;1.20;99.90
20158;DHT22;10239;56.820;24.416;2024-03-08T01:24:29;1.20;99.90
20158;DHT22;10239;56.820;24.416;2024-03-08T01:26:56;1.20;99.90
20158;DHT22;10239;56.820;24.416;2024-03-08T01:29:24;1.20;99.90
20158;DHT22;10239;56.820;24.416;2024-03-08T01:31:51;1.20;99.90
20158;DHT22;10239;56.820;24.416;2024-03-08T01:34:19;1.30;99.90
20158;DHT22;10239;56.820;24.416;2024-03-08T01:36:48;1.30;99.90
20158;DHT22;10239;56.820;24.416;2024-03-08T01:39:15;1.20;99.90
20158;DHT22;10239;56.820;24.416;2024-03-08T01:41:44;1.30;99.90
20158;DHT22;10239;56.820;24.416;2024-03-08T01:44:12;1.20;99.90
20158;DHT22;10239;56.820;24.416;2024-03-08T01:46:47;1.10;99.90
20158;DHT22;10239;56.820;24.416;2024-03-08T01:49:15;1.10;99.90
20158;DHT22;10239;56.820;24.416;2024-03-08T01:51:45;1.20;99.90
20158;DHT22;10239;56.820;24.416;2024-03-08T01:54:14;1.20;99.90
20158;DHT22;10239;56.820;24.416;2024-03-08T01:56:43;1.20;99.90
20158;DHT22;10239;56.820;24.416;2024-03-08T01:59:10;1.20;99.90
20158;DHT22;10239;56.820;24.416;2024-03-08T02:01:38;1.10;99.90
20158;DHT22;10239;56.820;24.416;2024-03-08T02:04:06;1.10;99.90
20158;DHT22;10239;56.820;24.416;2024-03-08T02:06:34;1.10;99.90
20158;DHT22;10239;56.820;24.416;2024-03-08T02:09:02;1.10;99.90
20158;DHT22;10239;56.820;24.416;2024-03-08T02:11:36;1.00;99.90
20158;DHT22;10239;56.820;24.416;2024-03-08T02:14:04;1.20;99.90
20158;DHT22;10239;56.820;24.416;2024-03-08T02:16:33;1.20;99.90
20158;DHT22;10239;56.820;24.416;2024-03-08T02:19:01;1.20;99.90
20158;DHT22;10239;56.820;24.416;2024-03-08T02:21:29;1.10;99.90
20158;DHT22;10239;56.820;24.416;2024-03-08T02:23:57;1.00;99.90
20158;DHT22;10239;56.820;24.416;2024-03-08T02:26:24;0.80;99.90
20158;DHT22;10239;56.820;24.416;2024-03-08T02:28:52;0.90;99.90
20158;DHT22;10239;56.820;24.416;2024-03-08T02:31:19;0.90;99.90
20158;DHT22;10239;56.820;24.416;2024-03-08T02:33:48;1.00;99.90
20158;DHT22;10239;56.820;24.416;2024-03-08T02:36:16;1.00;99.90
20158;DHT22;10239;56.820;24.416;2024-03-08T02:38:43;1.00;99.90
20158;DHT22;10239;56.820;24.416;2024-03-08T02:41:11;1.10;99.90
20158;DHT22;10239;56.820;24.416;2024-03-08T02:43:39;1.00;99.90
20158;DHT22;10239;56.820;24.416;2024-03-08T02:46:07;1.10;99.90
20158;DHT22;10239;56.820;24.416;2024-03-08T02:48:34;1.00;99.90
20158;DHT22;10239;56.820;24.416;2024-03-08T02:51:03;0.90;99.90
20158;DHT22;10239;56.820;24.416;2024-03-08T02:53:30;0.80;99.90
20158;DHT22;10239;56.820;24.416;2024-03-08T02:55:58;0.80;99.90
20158;DHT22;10239;56.820;24.416;2024-03-08T02:58:26;0.90;99.90
20158;DHT22;10239;56.820;24.416;2024-03-08T03:00:54;1.00;99.90
20158;DHT22;10239;56.820;24.416;2024-03-08T03:03:22;1.00;99.90
20158;DHT22;10239;56.820;24.416;2024-03-08T03:05:49;0.90;99.90
20158;DHT22;10239;56.820;24.416;2024-03-08T03:08:17;0.90;99.90
20158;DHT22;10239;56.820;24.416;2024-03-08T03:10:45;0.90;99.90
20158;DHT22;10239;56.820;24.416;2024-03-08T03:13:13;0.80;99.90
20158;DHT22;10239;56.820;24.416;2024-03-08T03:15:41;0.80;99.90
20158;DHT22;10239;56.820;24.416;2024-03-08T03:18:09;0.70;99.90
20158;DHT22;10239;56.820;24.416;2024-03-08T03:20:37;0.60;99.90
20158;DHT22;10239;56.820;24.416;2024-03-08T03:23:09;0.70;99.90
20158;DHT22;10239;56.820;24.416;2024-03-08T03:25:40;0.70;99.90
20158;DHT22;10239;56.820;24.416;2024-03-08T03:28:09;0.80;99.90
20158;DHT22;10239;56.820;24.416;2024-03-08T03:30:38;0.70;99.90
20158;DHT22;10239;56.820;24.416;2024-03-08T03:33:06;0.70;99.90
20158;DHT22;10239;56.820;24.416;2024-03-08T03:35:35;0.70;99.90
20158;DHT22;10239;56.820;24.416;2024-03-08T03:38:04;0.80;99.90
20158;DHT22;10239;56.820;24.416;2024-03-08T03:40:38;0.70;99.90
20158;DHT22;10239;56.820;24.416;2024-03-08T03:43:08;0.70;99.90
20158;DHT22;10239;56.820;24.416;2024-03-08T03:45:39;0.80;99.90
20158;DHT22;10239;56.820;24.416;2024-03-08T03:48:09;0.70;99.90
20158;DHT22;10239;56.820;24.416;2024-03-08T03:50:38;0.80;99.90
20158;DHT22;10239;56.820;24.416;2024-03-08T03:53:07;0.70;99.90
20158;DHT22;10239;56.820;24.416;2024-03-08T03:55:36;0.70;99.90
20158;DHT22;10239;56.820;24.416;2024-03-08T03:58:08;0.70;99.90
20158;DHT22;10239;56.820;24.416;2024-03-08T04:00:39;0.60;99.90
20158;DHT22;10239;56.820;24.416;2024-03-08T04:03:08;0.60;99.90
20158;DHT22;10239;56.820;24.416;2024-03-08T04:05:36;0.60;99.90
20158;DHT22;10239;56.820;24.416;2024-03-08T04:08:04;0.60;99.90
20158;DHT22;10239;56.820;24.416;2024-03-08T04:10:32;0.60;99.90
20158;DHT22;10239;56.820;24.416;2024-03-08T04:12:59;0.70;99.90
20158;DHT22;10239;56.820;24.416;2024-03-08T04:15:27;0.60;99.90
20158;DHT22;10239;56.820;24.416;2024-03-08T04:17:55;0.60;99.90
20158;DHT22;10239;56.820;24.416;2024-03-08T04:20:22;0.60;99.90
20158;DHT22;10239;56.820;24.416;2024-03-08T04:22:50;0.60;99.90
20158;DHT22;10239;56.820;24.416;2024-03-08T04:25:18;0.70;99.90
20158;DHT22;10239;56.820;24.416;2024-03-08T04:27:45;0.60;99.90
20158;DHT22;10239;56.820;24.416;2024-03-08T04:30:14;0.70;99.90
20158;DHT22;10239;56.820;24.416;2024-03-08T04:32:41;0.70;99.90
20158;DHT22;10239;56.820;24.416;2024-03-08T04:35:10;0.70;99.90
20158;DHT22;10239;56.820;24.416;2024-03-08T04:37:40;0.70;99.90
20158;DHT22;10239;56.820;24.416;2024-03-08T04:40:08;0.70;99.90
20158;DHT22;10239;56.820;24.416;2024-03-08T04:42:37;0.70;99.90
20158;DHT22;10239;56.820;24.416;2024-03-08T04:45:06;0.70;99.90
20158;DHT22;10239;56.820;24.416;2024-03-08T04:47:38;0.70;99.90
20158;DHT22;10239;56.820;24.416;2024-03-08T04:50:06;0.70;99.90
20158;DHT22;10239;56.820;24.416;2024-03-08T04:52:34;0.70;99.90
20158;DHT22;10239;56.820;24.416;2024-03-08T04:55:02;0.70;99.90
20158;DHT22;10239;56.820;24.416;2024-03-08T04:57:33;0.80;99.90
20158;DHT22;10239;56.820;24.416;2024-03-08T05:00:02;0.80;99.90
20158;DHT22;10239;56.820;24.416;2024-03-08T05:02:29;0.80;99.90
20158;DHT22;10239;56.820;24.416;2024-03-08T05:04:56;0.90;99.90
20158;DHT22;10239;56.820;24.416;2024-03-08T05:07:24;0.90;99.90
20158;DHT22;10239;56.820;24.416;2024-03-08T05:09:51;0.80;99.90
20158;DHT22;10239;56.820;24.416;2024-03-08T05:12:19;0.80;99.90
20158;DHT22;10239;56.820;24.416;2024-03-08T05:14:47;0.80;99.90
20158;DHT22;10239;56.820;24.416;2024-03-08T05:17:17;0.80;99.90
20158;DHT22;10239;56.820;24.416;2024-03-08T05:19:45;0.80;99.90
20158;DHT22;10239;56.820;24.416;2024-03-08T05:22:12;0.80;99.90
20158;DHT22;10239;56.820;24.416;2024-03-08T05:24:40;0.80;99.90
20158;DHT22;10239;56.820;24.416;2024-03-08T05:27:08;0.80;99.90
20158;DHT22;10239;56.820;24.416;2024-03-08T05:29:35;0.90;99.90
20158;DHT22;10239;56.820;24.416;2024-03-08T05:32:03;0.90;99.90
20158;DHT22;10239;56.820;24.416;2024-03-08T05:34:31;1.00;99.90
20158;DHT22;10239;56.820;24.416;2024-03-08T05:36:58;2.10;99.90
20158;DHT22;10239;56.820;24.416;2024-03-08T05:39:27;0.90;99.90
20158;DHT22;10239;56.820;24.416;2024-03-08T05:41:55;0.90;99.90
20158;DHT22;10239;56.820;24.416;2024-03-08T05:44:23;0.90;99.90
20158;DHT22;10239;56.820;24.416;2024-03-08T05:46:50;0.90;99.90
20158;DHT22;10239;56.820;24.416;2024-03-08T05:49:18;1.00;99.90
20158;DHT22;10239;56.820;24.416;2024-03-08T05:51:45;0.90;99.90
20158;DHT22;10239;56.820;24.416;2024-03-08T05:54:15;1.00;99.90
20158;DHT22;10239;56.820;24.416;2024-03-08T05:56:45;0.80;99.90
20158;DHT22;10239;56.820;24.416;2024-03-08T05:59:15;0.90;99.90
20158;DHT22;10239;56.820;24.416;2024-03-08T06:01:42;0.90;99.90
20158;DHT22;10239;56.820;24.416;2024-03-08T06:04:09;1.00;99.90
20158;DHT22;10239;56.820;24.416;2024-03-08T06:06:39;1.00;99.90
20158;DHT22;10239;56.820;24.416;2024-03-08T06:09:08;1.00;99.90
20158;DHT22;10239;56.820;24.416;2024-03-08T06:11:45;1.10;99.90
20158;DHT22;10239;56.820;24.416;2024-03-08T06:14:12;1.10;99.90
20158;DHT22;10239;56.820;24.416;2024-03-08T06:16:40;1.10;99.90
20158;DHT22;10239;56.820;24.416;2024-03-08T06:19:07;1.10;99.90
20158;DHT22;10239;56.820;24.416;2024-03-08T06:21:35;1.10;99.90
20158;DHT22;10239;56.820;24.416;2024-03-08T06:24:02;1.10;99.90
20158;DHT22;10239;56.820;24.416;2024-03-08T06:26:30;1.10;99.90
20158;DHT22;10239;56.820;24.416;2024-03-08T06:28:59;1.10;99.90
20158;DHT22;10239;56.820;24.416;2024-03-08T06:31:26;1.10;99.90
20158;DHT22;10239;56.820;24.416;2024-03-08T06:33:54;1.10;99.90
20158;DHT22;10239;56.820;24.416;2024-03-08T06:36:23;1.20;99.90
20158;DHT22;10239;56.820;24.416;2024-03-08T06:38:51;1.20;99.90
20158;DHT22;10239;56.820;24.416;2024-03-08T06:41:19;1.20;99.90
20158;DHT22;10239;56.820;24.416;2024-03-08T06:43:47;1.20;99.90
20158;DHT22;10239;56.820;24.416;2024-03-08T06:46:16;1.20;99.90
20158;DHT22;10239;56.820;24.416;2024-03-08T06:48:43;1.30;99.90
20158;DHT22;10239;56.820;24.416;2024-03-08T06:51:14;1.30;99.90
20158;DHT22;10239;56.820;24.416;2024-03-08T06:53:41;1.40;99.90
20158;DHT22;10239;56.820;24.416;2024-03-08T06:56:09;1.40;99.90
20158;DHT22;10239;56.820;24.416;2024-03-08T06:58:37;1.40;99.90
20158;DHT22;10239;56.820;24.416;2024-03-08T07:01:04;1.40;99.90
20158;DHT22;10239;56.820;24.416;2024-03-08T07:03:35;1.40;99.90
20158;DHT22;10239;56.820;24.416;2024-03-08T07:06:02;1.60;99.90
20158;DHT22;10239;56.820;24.416;2024-03-08T07:08:31;1.60;99.90
20158;DHT22;10239;56.820;24.416;2024-03-08T07:11:00;1.70;99.90
20158;DHT22;10239;56.820;24.416;2024-03-08T07:13:27;1.70;99.90
20158;DHT22;10239;56.820;24.416;2024-03-08T07:15:56;1.70;99.90
20158;DHT22;10239;56.820;24.416;2024-03-08T07:18:27;1.80;99.90
20158;DHT22;10239;56.820;24.416;2024-03-08T07:20:55;1.90;99.90
20158;DHT22;10239;56.820;24.416;2024-03-08T07:23:22;1.80;99.90
20158;DHT22;10239;56.820;24.416;2024-03-08T07:26:22;1.80;99.90
20158;DHT22;10239;56.820;24.416;2024-03-08T07:28:50;1.80;99.90
20158;DHT22;10239;56.820;24.416;2024-03-08T07:31:17;1.80;99.90
20158;DHT22;10239;56.820;24.416;2024-03-08T07:34:03;1.70;99.90
20158;DHT22;10239;56.820;24.416;2024-03-08T07:36:30;1.70;99.90
20158;DHT22;10239;56.820;24.416;2024-03-08T07:38:58;1.60;99.90
20158;DHT22;10239;56.820;24.416;2024-03-08T07:41:26;1.60;99.90
20158;DHT22;10239;56.820;24.416;2024-03-08T07:43:53;1.60;99.90
20158;DHT22;10239;56.820;24.416;2024-03-08T07:46:20;1.70;99.90
20158;DHT22;10239;56.820;24.416;2024-03-08T07:48:48;1.80;99.90
20158;DHT22;10239;56.820;24.416;2024-03-08T07:51:16;1.80;99.90
20158;DHT22;10239;56.820;24.416;2024-03-08T07:53:48;1.80;99.90
20158;DHT22;10239;56.820;24.416;2024-03-08T07:56:16;1.80;99.90
20158;DHT22;10239;56.820;24.416;2024-03-08T07:58:45;1.90;99.90
20158;DHT22;10239;56.820;24.416;2024-03-08T08:01:17;1.90;99.90
20158;DHT22;10239;56.820;24.416;2024-03-08T08:03:45;2.00;99.90
20158;DHT22;10239;56.820;24.416;2024-03-08T08:06:13;2.00;99.90
20158;DHT22;10239;56.820;24.416;2024-03-08T08:08:43;1.90;99.90
20158;DHT22;10239;56.820;24.416;2024-03-08T08:11:11;1.90;99.90
20158;DHT22;10239;56.820;24.416;2024-03-08T08:13:44;2.00;99.90
20158;DHT22;10239;56.820;24.416;2024-03-08T08:16:11;2.10;99.90
20158;DHT22;10239;56.820;24.416;2024-03-08T08:18:40;2.20;99.90
20158;DHT22;10239;56.820;24.416;2024-03-08T08:21:08;2.20;99.90
20158;DHT22;10239;56.820;24.416;2024-03-08T08:23:35;2.20;99.90
20158;DHT22;10239;56.820;24.416;2024-03-08T08:26:03;2.20;99.90
20158;DHT22;10239;56.820;24.416;2024-03-08T08:28:30;2.20;99.90
20158;DHT22;10239;56.820;24.416;2024-03-08T08:30:58;2.20;99.90
20158;DHT22;10239;56.820;24.416;2024-03-08T08:33:26;2.30;99.90
20158;DHT22;10239;56.820;24.416;2024-03-08T08:35:54;2.30;99.90
20158;DHT22;10239;56.820;24.416;2024-03-08T08:38:21;2.20;99.90
20158;DHT22;10239;56.820;24.416;2024-03-08T08:40:50;2.30;99.90
20158;DHT22;10239;56.820;24.416;2024-03-08T08:43:17;2.40;99.90
20158;DHT22;10239;56.820;24.416;2024-03-08T08:45:45;2.50;99.90
20158;DHT22;10239;56.820;24.416;2024-03-08T08:48:14;2.60;99.90
20158;DHT22;10239;56.820;24.416;2024-03-08T08:50:42;2.60;99.90
20158;DHT22;10239;56.820;24.416;2024-03-08T08:53:11;2.80;99.90
20158;DHT22;10239;56.820;24.416;2024-03-08T08:55:40;2.70;99.90
20158;DHT22;10239;56.820;24.416;2024-03-08T08:58:07;2.90;99.90
20158;DHT22;10239;56.820;24.416;2024-03-08T09:00:35;2.90;99.90
20158;DHT22;10239;56.820;24.416;2024-03-08T09:03:02;2.80;99.90
20158;DHT22;10239;56.820;24.416;2024-03-08T09:05:30;2.90;99.90
20158;DHT22;10239;56.820;24.416;2024-03-08T09:08:00;3.00;99.90
20158;DHT22;10239;56.820;24.416;2024-03-08T09:10:28;2.90;99.90
20158;DHT22;10239;56.820;24.416;2024-03-08T09:12:57;2.90;99.90
20158;DHT22;10239;56.820;24.416;2024-03-08T09:15:27;2.80;99.90
20158;DHT22;10239;56.820;24.416;2024-03-08T09:17:56;2.90;99.90
20158;DHT22;10239;56.820;24.416;2024-03-08T09:20:23;2.90;99.90
20158;DHT22;10239;56.820;24.416;2024-03-08T09:22:52;3.00;99.90
20158;DHT22;10239;56.820;24.416;2024-03-08T09:25:19;3.10;99.90
20158;DHT22;10239;56.820;24.416;2024-03-08T09:27:46;3.10;99.90
20158;DHT22;10239;56.820;24.416;2024-03-08T09:30:14;2.90;99.90
20158;DHT22;10239;56.820;24.416;2024-03-08T09:32:42;2.80;99.90
20158;DHT22;10239;56.820;24.416;2024-03-08T09:35:10;2.70;99.90
20158;DHT22;10239;56.820;24.416;2024-03-08T09:37:38;2.80;99.90
20158;DHT22;10239;56.820;24.416;2024-03-08T09:40:06;3.00;99.90
20158;DHT22;10239;56.820;24.416;2024-03-08T09:42:37;3.00;99.90
20158;DHT22;10239;56.820;24.416;2024-03-08T09:45:09;3.10;99.90
20158;DHT22;10239;56.820;24.416;2024-03-08T09:47:42;3.00;99.90
20158;DHT22;10239;56.820;24.416;2024-03-08T09:50:10;3.10;99.90
20158;DHT22;10239;56.820;24.416;2024-03-08T09:52:40;3.20;99.90
20158;DHT22;10239;56.820;24.416;2024-03-08T09:55:09;3.20;99.90
20158;DHT22;10239;56.820;24.416;2024-03-08T09:57:39;3.20;99.90
20158;DHT22;10239;56.820;24.416;2024-03-08T10:00:07;3.30;99.90
20158;DHT22;10239;56.820;24.416;2024-03-08T10:02:51;3.20;99.90
20158;DHT22;10239;56.820;24.416;2024-03-08T10:05:21;3.00;99.90
20158;DHT22;10239;56.820;24.416;2024-03-08T10:07:49;3.00;99.90
20158;DHT22;10239;56.820;24.416;2024-03-08T10:10:16;3.10;99.90
20158;DHT22;10239;56.820;24.416;2024-03-08T10:12:44;3.10;99.90
20158;DHT22;10239;56.820;24.416;2024-03-08T10:15:12;3.30;99.90
20158;DHT22;10239;56.820;24.416;2024-03-08T10:17:41;3.20;99.90
20158;DHT22;10239;56.820;24.416;2024-03-08T10:20:17;3.20;99.90
20158;DHT22;10239;56.820;24.416;2024-03-08T10:22:45;3.20;99.90
20158;DHT22;10239;56.820;24.416;2024-03-08T10:25:29;3.30;99.90
20158;DHT22;10239;56.820;24.416;2024-03-08T10:27:57;3.40;99.90
20158;DHT22;10239;56.820;24.416;2024-03-08T10:30:24;3.30;99.90
20158;DHT22;10239;56.820;24.416;2024-03-08T10:32:52;3.30;99.90
20158;DHT22;10239;56.820;24.416;2024-03-08T10:35:21;3.30;99.90
20158;DHT22;10239;56.820;24.416;2024-03-08T10:37:51;3.30;99.90
20158;DHT22;10239;56.820;24.416;2024-03-08T10:40:31;3.30;99.90
20158;DHT22;10239;56.820;24.416;2024-03-08T10:43:00;3.40;99.90
20158;DHT22;10239;56.820;24.416;2024-03-08T10:45:31;3.40;99.90
20158;DHT22;10239;56.820;24.416;2024-03-08T10:50:38;3.40;99.90
20158;DHT22;10239;56.820;24.416;2024-03-08T10:53:07;3.40;99.90
20158;DHT22;10239;56.820;24.416;2024-03-08T10:55:37;3.40;99.90
20158;DHT22;10239;56.820;24.416;2024-03-08T10:58:07;3.50;99.90
20158;DHT22;10239;56.820;24.416;2024-03-08T11:00:36;3.40;99.90
20158;DHT22;10239;56.820;24.416;2024-03-08T11:03:04;3.40;99.90
20158;DHT22;10239;56.820;24.416;2024-03-08T11:05:39;3.60;99.90
20158;DHT22;10239;56.820;24.416;2024-03-08T11:08:18;3.60;99.90
20158;DHT22;10239;56.820;24.416;2024-03-08T11:10:53;3.60;99.90
20158;DHT22;10239;56.820;24.416;2024-03-08T11:13:35;3.60;99.90
20158;DHT22;10239;56.820;24.416;2024-03-08T11:21:43;3.30;99.90
20158;DHT22;10239;56.820;24.416;2024-03-08T11:24:13;3.50;99.90
20158;DHT22;10239;56.820;24.416;2024-03-08T11:26:41;3.50;99.90
20158;DHT22;10239;56.820;24.416;2024-03-08T11:32:11;3.40;99.90
20158;DHT22;10239;56.820;24.416;2024-03-08T11:34:41;3.40;99.90
20158;DHT22;10239;56.820;24.416;2024-03-08T11:37:19;3.40;99.90
20158;DHT22;10239;56.820;24.416;2024-03-08T11:39:50;3.30;99.90
20158;DHT22;10239;56.820;24.416;2024-03-08T11:42:19;3.40;99.90
20158;DHT22;10239;56.820;24.416;2024-03-08T11:44:47;3.40;99.90
20158;DHT22;10239;56.820;24.416;2024-03-08T11:47:15;3.40;99.90
20158;DHT22;10239;56.820;24.416;2024-03-08T11:49:44;3.40;99.90
20158;DHT22;10239;56.820;24.416;2024-03-08T11:52:14;3.50;99.90
20158;DHT22;10239;56.820;24.416;2024-03-08T11:54:55;3.50;99.90
20158;DHT22;10239;56.820;24.416;2024-03-08T11:57:26;3.40;99.90
20158;DHT22;10239;56.820;24.416;2024-03-08T11:59:54;3.40;99.90
20158;DHT22;10239;56.820;24.416;2024-03-08T12:02:25;3.40;99.90
20158;DHT22;10239;56.820;24.416;2024-03-08T12:04:58;3.70;99.90
20158;DHT22;10239;56.820;24.416;2024-03-08T12:07:43;3.80;99.90
20158;DHT22;10239;56.820;24.416;2024-03-08T12:10:19;3.70;99.90
20158;DHT22;10239;56.820;24.416;2024-03-08T12:12:53;3.70;99.90
20158;DHT22;10239;56.820;24.416;2024-03-08T12:15:23;3.70;99.90
20158;DHT22;10239;56.820;24.416;2024-03-08T12:17:52;3.60;99.90
20158;DHT22;10239;56.820;24.416;2024-03-08T12:20:25;3.60;99.90
20158;DHT22;10239;56.820;24.416;2024-03-08T12:22:53;3.60;99.90
20158;DHT22;10239;56.820;24.416;2024-03-08T12:25:33;3.60;99.90
20158;DHT22;10239;56.820;24.416;2024-03-08T12:28:10;3.70;99.90
20158;DHT22;10239;56.820;24.416;2024-03-08T12:30:51;3.70;99.90
20158;DHT22;10239;56.820;24.416;2024-03-08T12:33:21;3.70;99.90
20158;DHT22;10239;56.820;24.416;2024-03-08T12:35:53;3.80;99.90
20158;DHT22;10239;56.820;24.416;2024-03-08T12:38:23;3.80;99.90
20158;DHT22;10239;56.820;24.416;2024-03-08T12:40:59;4.00;99.90
20158;DHT22;10239;56.820;24.416;2024-03-08T12:43:27;4.10;99.90
20158;DHT22;10239;56.820;24.416;2024-03-08T12:45:58;4.20;99.90
20158;DHT22;10239;56.820;24.416;2024-03-08T12:48:26;4.10;99.90
20158;DHT22;10239;56.820;24.416;2024-03-08T12:50:54;4.10;99.90
20158;DHT22;10239;56.820;24.416;2024-03-08T12:53:22;4.10;99.90
20158;DHT22;10239;56.820;24.416;2024-03-08T12:55:51;4.00;99.90
20158;DHT22;10239;56.820;24.416;2024-03-08T12:58:19;3.90;99.90
20158;DHT22;10239;56.820;24.416;2024-03-08T13:00:47;3.80;99.90
20158;DHT22;10239;56.820;24.416;2024-03-08T13:03:20;4.00;99.90
20158;DHT22;10239;56.820;24.416;2024-03-08T13:05:50;4.00;99.90
20158;DHT22;10239;56.820;24.416;2024-03-08T13:08:17;4.10;99.90
20158;DHT22;10239;56.820;24.416;2024-03-08T13:10:45;4.10;99.90
20158;DHT22;10239;56.820;24.416;2024-03-08T13:13:12;4.00;99.90
20158;DHT22;10239;56.820;24.416;2024-03-08T13:15:44;3.90;99.90
20158;DHT22;10239;56.820;24.416;2024-03-08T13:18:12;3.90;99.90
20158;DHT22;10239;56.820;24.416;2024-03-08T13:20:39;3.90;99.90
20158;DHT22;10239;56.820;24.416;2024-03-08T13:23:14;4.00;99.90
20158;DHT22;10239;56.820;24.416;2024-03-08T13:25:41;4.00;99.90
20158;DHT22;10239;56.820;24.416;2024-03-08T13:28:09;3.90;99.90
20158;DHT22;10239;56.820;24.416;2024-03-08T13:30:38;3.80;99.90
20158;DHT22;10239;56.820;24.416;2024-03-08T13:33:05;3.60;99.90
20158;DHT22;10239;56.820;24.416;2024-03-08T13:35:34;3.50;99.90
20158;DHT22;10239;56.820;24.416;2024-03-08T13:38:02;3.60;99.90
20158;DHT22;10239;56.820;24.416;2024-03-08T13:40:36;3.60;99.90
20158;DHT22;10239;56.820;24.416;2024-03-08T13:43:04;3.50;99.90
20158;DHT22;10239;56.820;24.416;2024-03-08T13:45:31;3.40;99.90
20158;DHT22;10239;56.820;24.416;2024-03-08T13:48:00;3.40;99.90
20158;DHT22;10239;56.820;24.416;2024-03-08T13:50:31;3.50;99.90
20158;DHT22;10239;56.820;24.416;2024-03-08T13:52:59;3.50;99.90
20158;DHT22;10239;56.820;24.416;2024-03-08T13:55:26;3.60;99.90
20158;DHT22;10239;56.820;24.416;2024-03-08T13:57:55;3.60;99.90
20158;DHT22;10239;56.820;24.416;2024-03-08T14:00:25;3.50;99.90
20158;DHT22;10239;56.820;24.416;2024-03-08T14:02:55;3.50;99.90
20158;DHT22;10239;56.820;24.416;2024-03-08T14:05:22;3.40;99.90
20158;DHT22;10239;56.820;24.416;2024-03-08T14:07:50;3.50;99.90
20158;DHT22;10239;56.820;24.416;2024-03-08T14:10:17;3.60;99.90
20158;DHT22;10239;56.820;24.416;2024-03-08T14:12:50;3.60;99.90
20158;DHT22;10239;56.820;24.416;2024-03-08T14:15:18;3.60;99.90
20158;DHT22;10239;56.820;24.416;2024-03-08T14:17:52;3.70;99.90
20158;DHT22;10239;56.820;24.416;2024-03-08T14:20:20;3.90;99.90
20158;DHT22;10239;56.820;24.416;2024-03-08T14:22:56;4.10;99.90
20158;DHT22;10239;56.820;24.416;2024-03-08T14:25:24;4.00;99.90
20158;DHT22;10239;56.820;24.416;2024-03-08T14:27:53;3.90;99.90
20158;DHT22;10239;56.820;24.416;2024-03-08T14:30:21;3.70;99.90
20158;DHT22;10239;56.820;24.416;2024-03-08T14:33:06;3.40;99.90
20158;DHT22;10239;56.820;24.416;2024-03-08T14:35:38;3.20;99.90
20158;DHT22;10239;56.820;24.416;2024-03-08T14:38:06;3.00;99.90
20158;DHT22;10239;56.820;24.416;2024-03-08T14:40:36;3.00;99.90
20158;DHT22;10239;56.820;24.416;2024-03-08T14:43:04;2.80;99.90
20158;DHT22;10239;56.820;24.416;2024-03-08T14:45:32;2.80;99.90
20158;DHT22;10239;56.820;24.416;2024-03-08T14:48:00;2.80;99.90
20158;DHT22;10239;56.820;24.416;2024-03-08T14:50:29;2.90;99.90
20158;DHT22;10239;56.820;24.416;2024-03-08T14:53:00;2.80;99.90
20158;DHT22;10239;56.820;24.416;2024-03-08T14:55:28;2.80;99.90
20158;DHT22;10239;56.820;24.416;2024-03-08T14:57:58;2.80;99.90
20158;DHT22;10239;56.820;24.416;2024-03-08T15:00:25;2.70;99.90
20158;DHT22;10239;56.820;24.416;2024-03-08T15:03:11;2.60;99.90
20158;DHT22;10239;56.820;24.416;2024-03-08T15:05:44;2.60;99.90
20158;DHT22;10239;56.820;24.416;2024-03-08T15:08:16;2.50;99.90
20158;DHT22;10239;56.820;24.416;2024-03-08T15:10:51;2.50;99.90
20158;DHT22;10239;56.820;24.416;2024-03-08T15:13:22;2.40;99.90
20158;DHT22;10239;56.820;24.416;2024-03-08T15:15:55;2.30;99.90
20158;DHT22;10239;56.820;24.416;2024-03-08T15:18:24;2.20;99.90
20158;DHT22;10239;56.820;24.416;2024-03-08T15:21:05;2.10;99.90
20158;DHT22;10239;56.820;24.416;2024-03-08T15:23:34;2.00;99.90
20158;DHT22;10239;56.820;24.416;2024-03-08T15:26:03;2.00;99.90
20158;DHT22;10239;56.820;24.416;2024-03-08T15:28:35;1.90;99.90
20158;DHT22;10239;56.820;24.416;2024-03-08T15:31:06;1.90;99.90
20158;DHT22;10239;56.820;24.416;2024-03-08T15:33:35;2.00;99.90
20158;DHT22;10239;56.820;24.416;2024-03-08T15:36:09;2.00;99.90
20158;DHT22;10239;56.820;24.416;2024-03-08T15:38:38;2.00;99.90
20158;DHT22;10239;56.820;24.416;2024-03-08T15:41:07;1.90;99.90
20158;DHT22;10239;56.820;24.416;2024-03-08T15:43:40;1.80;99.90
20158;DHT22;10239;56.820;24.416;2024-03-08T15:46:10;1.70;99.90
20158;DHT22;10239;56.820;24.416;2024-03-08T15:48:38;1.60;99.90
20158;DHT22;10239;56.820;24.416;2024-03-08T15:51:09;1.60;99.90
20158;DHT22;10239;56.820;24.416;2024-03-08T15:53:38;1.50;99.90